Time;durP1;ratioP1;P1;durP2;ratioP2;P2;SDS_P1;SDS_P2;PMS_P1;PMS_P2;Temp;Humidity;BMP_temperature;BMP_pressure;BME280_temperature;BME280_humidity;BME280_pressure;Samples;Min_cycle;Max_cycle;Signal;HPM_P1;HPM_P2
2024/02/14 00:01:07;;;;;;;25.27;20.08;;;10.30;99.90;;;10.55;100.00;101049.69;5013271;28;20115;-66
2024/02/14 00:03:38;;;;;;;24.20;20.13;;;10.30;99.90;;;10.52;100.00;101045.28;5013688;28;20045;-66
2024/02/14 00:06:07;;;;;;;21.73;19.45;;;10.30;99.90;;;10.56;100.00;101052.31;5013439;28;20057;-67
2024/02/14 00:08:35;;;;;;;23.10;20.65;;;10.30;99.90;;;10.66;100.00;101063.78;5012830;28;20484;-66
2024/02/14 00:11:04;;;;;;;25.90;21.33;;;10.40;99.90;;;10.73;100.00;101052.28;5013038;28;20096;-67
2024/02/14 00:13:34;;;;;;;23.77;21.20;;;10.50;99.90;;;10.68;100.00;101033.75;5012726;28;20066;-67
2024/02/14 00:16:06;;;;;;;25.27;21.77;;;10.50;99.90;;;10.73;100.00;101070.78;5013196;28;20124;-66
2024/02/14 00:18:34;;;;;;;31.00;23.20;;;10.50;99.90;;;10.70;100.00;101049.66;5012928;28;20132;-65
2024/02/14 00:21:03;;;;;;;24.77;21.33;;;10.50;99.90;;;10.69;100.00;101027.59;5012836;28;20069;-66
2024/02/14 00:23:32;;;;;;;23.23;20.88;;;10.50;99.90;;;10.76;100.00;101034.63;5012736;28;20045;-66
2024/02/14 00:26:00;;;;;;;28.20;23.92;;;10.50;99.90;;;10.78;100.00;101050.53;5012912;28;20038;-65
2024/02/14 00:28:29;;;;;;;26.67;21.58;;;10.50;99.90;;;10.82;100.00;101046.94;5012555;28;20491;-65
2024/02/14 00:31:01;;;;;;;25.02;21.45;;;10.60;99.90;;;10.84;100.00;101039.91;5012648;28;20053;-65
2024/02/14 00:33:29;;;;;;;26.20;21.53;;;10.60;99.90;;;10.80;100.00;101030.22;5012920;28;20062;-65
2024/02/14 00:35:58;;;;;;;23.02;20.70;;;10.60;99.90;;;10.80;100.00;101038.16;5012573;28;20483;-66
2024/02/14 00:38:27;;;;;;;23.63;21.08;;;10.50;99.90;;;10.89;100.00;101059.31;5012566;28;20057;-65
2024/02/14 00:40:55;;;;;;;23.08;20.60;;;10.60;99.90;;;10.89;100.00;101043.44;5012167;28;20076;-65
2024/02/14 00:43:24;;;;;;;22.88;19.42;;;10.60;99.90;;;10.83;100.00;101041.69;5012385;28;20718;-65
2024/02/14 00:45:52;;;;;;;23.67;20.92;;;10.60;99.90;;;10.82;100.00;101039.00;5012339;28;20450;-65
2024/02/14 00:48:22;;;;;;;24.08;20.58;;;10.60;99.90;;;10.83;100.00;101046.09;4994579;28;20137;-65
2024/02/14 00:50:52;;;;;;;24.25;20.58;;;10.60;99.90;;;10.93;100.00;101033.72;5012094;28;20519;-65
2024/02/14 00:53:20;;;;;;;24.38;21.27;;;10.60;99.90;;;10.93;100.00;101045.19;4994026;28;20050;-65
2024/02/14 00:55:49;;;;;;;27.40;20.38;;;10.70;99.90;;;10.96;100.00;101039.88;5012180;28;20461;-65
2024/02/14 00:58:17;;;;;;;22.92;19.88;;;10.70;99.90;;;10.97;100.00;101041.66;5012218;28;20076;-65
2024/02/14 01:00:45;;;;;;;23.73;19.75;;;10.70;99.90;;;10.95;100.00;101038.13;5012118;28;20049;-65
2024/02/14 01:03:15;;;;;;;23.95;19.25;;;10.70;99.90;;;10.96;100.00;101031.91;5011847;28;20045;-65
2024/02/14 01:05:45;;;;;;;24.67;19.00;;;10.70;99.90;;;11.04;100.00;101038.06;4994199;28;20081;-65
2024/02/14 01:08:14;;;;;;;26.92;18.67;;;10.80;99.90;;;11.07;100.00;101031.91;5011831;28;20050;-65
2024/02/14 01:10:42;;;;;;;24.50;18.55;;;10.80;99.90;;;11.00;100.00;101048.66;5012144;28;20418;-65
2024/02/14 01:13:12;;;;;;;23.52;18.42;;;10.70;99.90;;;10.99;100.00;101047.81;5011702;28;20128;-64
2024/02/14 01:15:41;;;;;;;25.23;18.58;;;10.70;99.90;;;10.99;100.00;101055.75;5011420;28;20064;-65
2024/02/14 01:18:10;;;;;;;22.10;18.23;;;10.80;99.90;;;11.01;100.00;101042.50;5011398;28;20487;-64
2024/02/14 01:20:39;;;;;;;20.88;18.25;;;10.80;99.90;;;11.04;100.00;101047.78;5011457;28;20045;-65
2024/02/14 01:23:09;;;;;;;20.90;18.38;;;10.80;99.90;;;11.07;100.00;101059.22;5011280;28;20483;-65
2024/02/14 01:25:37;;;;;;;21.00;18.80;;;10.80;99.90;;;11.03;100.00;101056.63;5011409;28;20710;-65
2024/02/14 01:28:07;;;;;;;23.40;18.30;;;10.80;99.90;;;11.06;100.00;101073.38;4993928;28;20418;-65
2024/02/14 01:30:36;;;;;;;22.30;17.80;;;10.80;99.90;;;11.04;100.00;101064.53;5011219;28;20046;-65
2024/02/14 01:33:05;;;;;;;22.05;17.27;;;10.80;99.90;;;11.12;100.00;101073.34;5011109;28;20541;-65
2024/02/14 01:35:34;;;;;;;19.73;17.02;;;10.80;99.90;;;11.18;100.00;101062.75;5011544;28;20080;-65
2024/02/14 01:38:03;;;;;;;20.27;17.38;;;10.90;99.90;;;11.16;100.00;101069.81;5010974;28;20050;-65
2024/02/14 01:40:33;;;;;;;19.33;16.33;;;10.90;99.90;;;11.21;100.00;101069.75;5011395;28;20049;-65
2024/02/14 01:43:01;;;;;;;18.92;15.88;;;10.90;99.90;;;11.21;100.00;101067.13;5011290;28;20053;-64
2024/02/14 01:45:30;;;;;;;19.23;15.85;;;10.90;99.90;;;11.13;100.00;101061.00;5011365;28;20081;-66
2024/02/14 01:47:58;;;;;;;17.75;15.90;;;11.00;99.90;;;11.20;100.00;101065.38;5011049;28;20104;-65
2024/02/14 01:50:29;;;;;;;19.63;14.95;;;11.00;99.90;;;11.21;100.00;101070.66;5010899;28;20041;-65
2024/02/14 01:53:00;;;;;;;19.60;15.02;;;11.00;99.90;;;11.25;100.00;101064.47;4993442;28;20050;-65
2024/02/14 01:55:29;;;;;;;18.55;14.90;;;11.00;99.90;;;11.27;100.00;101064.44;5011311;28;20108;-65
2024/02/14 01:57:59;;;;;;;17.13;15.15;;;11.00;99.90;;;11.24;100.00;101057.41;5011316;28;20041;-65
2024/02/14 02:00:28;;;;;;;16.38;14.55;;;11.00;99.90;;;11.17;100.00;101066.25;5010724;28;20046;-65
2024/02/14 02:02:57;;;;;;;20.60;15.27;;;10.90;99.90;;;11.25;100.00;101068.88;5010951;28;20056;-65
2024/02/14 02:05:25;;;;;;;22.10;15.57;;;11.00;99.90;;;11.24;100.00;101075.97;5010364;28;20049;-65
2024/02/14 02:07:54;;;;;;;16.77;14.88;;;11.00;99.90;;;11.34;100.00;101075.00;5010816;28;20045;-65
2024/02/14 02:10:25;;;;;;;22.92;14.52;;;11.00;99.90;;;11.32;100.00;101076.81;4993506;28;20085;-66
2024/02/14 02:13:01;;;;;;;16.73;13.10;;;11.00;99.90;;;11.37;100.00;101075.00;5011078;28;20050;-65
2024/02/14 02:15:30;;;;;;;15.73;14.02;;;11.10;99.90;;;11.41;100.00;101082.06;5011038;28;20478;-65
2024/02/14 02:17:59;;;;;;;24.90;13.93;;;11.10;99.90;;;11.39;100.00;101072.34;5010949;28;20507;-65
2024/02/14 02:20:28;;;;;;;15.57;13.60;;;11.10;99.90;;;11.43;100.00;101093.53;4993481;28;20049;-65
2024/02/14 02:22:58;;;;;;;23.38;14.63;;;11.20;99.90;;;11.44;100.00;101078.53;5010778;28;20056;-66
2024/02/14 02:25:27;;;;;;;25.02;15.38;;;11.20;99.90;;;11.51;100.00;101083.78;5010792;28;20042;-65
2024/02/14 02:27:57;;;;;;;20.42;14.18;;;11.20;99.90;;;11.51;100.00;101080.25;5010756;28;20065;-65
2024/02/14 02:30:27;;;;;;;19.05;14.30;;;11.30;99.90;;;11.51;100.00;101089.09;5010691;28;20041;-65
2024/02/14 02:32:55;;;;;;;18.95;13.88;;;11.30;99.90;;;11.59;100.00;101083.75;5010555;28;20053;-65
2024/02/14 02:35:25;;;;;;;21.50;14.13;;;11.30;99.90;;;11.56;100.00;101086.38;4993478;28;20057;-65
2024/02/14 02:37:54;;;;;;;25.00;15.25;;;11.30;99.90;;;11.59;100.00;101091.69;5010703;28;20049;-66
2024/02/14 02:40:24;;;;;;;25.92;15.40;;;11.40;99.90;;;11.61;100.00;101100.50;5010810;28;20061;-66
2024/02/14 02:42:53;;;;;;;29.20;15.63;;;11.30;99.90;;;11.51;100.00;101073.19;5011014;28;20050;-66
2024/02/14 02:45:21;;;;;;;33.15;14.45;;;11.30;99.90;;;11.58;100.00;101093.44;5010647;28;20034;-65
2024/02/14 02:47:51;;;;;;;21.02;14.32;;;11.40;99.90;;;11.60;100.00;101099.63;5010659;28;20054;-65
2024/02/14 02:50:21;;;;;;;28.02;14.40;;;11.30;99.90;;;11.66;100.00;101104.94;5010386;28;20042;-65
2024/02/14 02:52:50;;;;;;;23.85;13.40;;;11.40;99.90;;;11.03;100.00;100996.63;5010268;28;20068;-66
2024/02/14 02:55:18;;;;;;;28.05;13.50;;;11.30;99.90;;;11.77;100.00;101097.78;5010299;28;20053;-65
2024/02/14 02:57:49;;;;;;;32.22;13.90;;;11.40;99.90;;;11.77;100.00;101096.91;4992814;28;20113;-65
2024/02/14 03:00:21;;;;;;;30.98;13.55;;;11.50;99.90;;;11.83;100.00;101110.13;5010589;28;20049;-65
2024/02/14 03:02:49;;;;;;;34.95;13.55;;;11.50;99.90;;;11.79;100.00;101093.38;5010523;28;20038;-65
2024/02/14 03:05:18;;;;;;;33.88;13.25;;;11.50;99.90;;;11.90;100.00;101103.03;5010338;28;20046;-65
2024/02/14 03:07:49;;;;;;;34.42;12.90;;;11.60;99.90;;;11.94;100.00;101107.44;5010791;28;20125;-65
2024/02/14 03:10:18;;;;;;;;;;;11.70;99.90;;;11.89;100.00;101095.94;4993258;28;20104;-65
2024/02/14 03:12:49;;;;;;;36.35;14.02;;;11.70;99.90;;;11.97;100.00;101118.00;5010300;28;19960;-65
2024/02/14 03:15:19;;;;;;;34.00;14.05;;;11.70;99.90;;;11.98;100.00;101119.78;5010364;28;20466;-65
2024/02/14 03:17:47;;;;;;;24.60;12.27;;;11.70;99.90;;;11.98;100.00;101139.19;5013099;28;20061;-65
2024/02/14 03:20:16;;;;;;;31.35;13.15;;;11.70;99.90;;;11.98;100.00;101123.28;4996598;28;20784;-65
2024/02/14 03:22:47;;;;;;;31.63;12.43;;;11.70;99.90;;;12.05;100.00;101119.72;5013978;28;20125;-65
2024/02/14 03:25:18;;;;;;;30.80;13.18;;;11.70;99.90;;;12.02;100.00;101114.41;5013768;28;20041;-65
2024/02/14 03:27:52;;;;;;;42.22;13.23;;;11.80;99.90;;;11.93;100.00;101095.94;5014110;28;20045;-65
2024/02/14 03:30:22;;;;;;;36.78;13.35;;;11.80;99.90;;;12.04;100.00;101130.34;5013692;28;20041;-65
2024/02/14 03:32:52;;;;;;;33.95;12.82;;;11.70;99.90;;;11.91;100.00;101110.97;5013751;28;20034;-65
2024/02/14 03:35:21;;;;;;;31.60;13.15;;;11.80;99.90;;;12.04;100.00;101130.34;4996335;28;20045;-65
2024/02/14 03:37:52;;;;;;;34.80;12.18;;;11.80;99.90;;;12.14;100.00;101129.38;5013937;28;20104;-65
2024/02/14 03:40:21;;;;;;;31.75;12.77;;;11.80;99.90;;;12.10;100.00;101133.81;5014342;28;20054;-65
2024/02/14 03:42:53;;;;;;;28.63;12.88;;;11.80;99.90;;;12.09;100.00;101125.88;5013497;28;20065;-65
2024/02/14 03:45:21;;;;;;;41.00;14.35;;;11.80;99.90;;;12.17;100.00;101139.97;5013699;28;20483;-65
2024/02/14 03:47:50;;;;;;;39.92;13.32;;;11.90;99.90;;;12.17;100.00;101135.56;5013995;28;20349;-65
2024/02/14 03:50:18;;;;;;;38.60;14.23;;;11.90;99.90;;;12.19;100.00;101143.50;5013262;28;20053;-65
2024/02/14 03:52:47;;;;;;;33.28;13.50;;;11.90;99.90;;;12.20;100.00;101139.94;4995959;28;20136;-64
2024/02/14 03:55:18;;;;;;;38.03;13.45;;;11.90;99.90;;;12.19;100.00;101133.78;5013216;28;20121;-65
2024/02/14 03:57:47;;;;;;;;;;;11.90;99.90;;;12.19;100.00;101138.19;5013539;28;20101;-65
2024/02/14 04:00:17;;;;;;;34.58;13.85;;;11.90;99.90;;;12.20;100.00;101135.53;5013170;28;19922;-65
2024/02/14 04:02:48;;;;;;;31.30;14.35;;;11.90;99.90;;;11.92;100.00;101088.88;5013264;28;20052;-65
2024/02/14 04:05:17;;;;;;;35.20;13.65;;;11.90;99.90;;;12.20;100.00;101143.47;5012893;28;20076;-65
2024/02/14 04:07:49;;;;;;;33.50;12.95;;;11.90;99.90;;;12.17;100.00;101139.97;5013257;28;20034;-65
2024/02/14 04:10:17;;;;;;;38.53;13.98;;;11.90;99.90;;;12.21;100.00;101145.25;5013239;28;20046;-65
2024/02/14 04:12:46;;;;;;;44.88;14.30;;;11.90;99.90;;;12.24;100.00;101153.19;5012966;28;20052;-65
2024/02/14 04:15:16;;;;;;;40.53;14.48;;;12.00;99.90;;;12.22;100.00;101148.75;5012991;28;20062;-65
2024/02/14 04:17:44;;;;;;;43.08;15.30;;;11.90;99.90;;;12.19;100.00;101148.81;5013316;28;20053;-65
2024/02/14 04:20:13;;;;;;;38.38;15.13;;;11.90;99.90;;;12.19;100.00;101149.69;5012945;28;20041;-65
2024/02/14 04:22:43;;;;;;;42.65;15.27;;;12.00;99.90;;;12.29;100.00;101163.78;5012647;28;20056;-65
2024/02/14 04:25:12;;;;;;;45.75;15.57;;;12.00;99.90;;;12.30;100.00;101162.88;5013146;28;20034;-65
2024/02/14 04:27:41;;;;;;;36.03;15.15;;;12.00;99.90;;;12.31;100.00;101154.03;5012359;28;20054;-65
2024/02/14 04:30:11;;;;;;;30.92;14.85;;;12.00;99.90;;;12.28;100.00;101151.38;5011839;28;20420;-65
2024/02/14 04:32:41;;;;;;;37.17;15.80;;;12.00;99.90;;;12.31;100.00;101164.63;5012762;28;20411;-65
2024/02/14 04:35:10;;;;;;;;;;;12.00;99.90;;;12.38;100.00;101167.25;5012759;28;20046;-65
2024/02/14 04:37:39;;;;;;;35.97;14.65;;;12.10;99.90;;;12.37;100.00;101168.13;5012732;28;19929;-65
2024/02/14 04:40:09;;;;;;;28.85;12.70;;;12.10;99.90;;;12.37;100.00;101170.75;5012174;28;20045;-65
2024/02/14 04:42:38;;;;;;;32.65;12.02;;;12.10;99.90;;;12.33;100.00;101176.13;5012575;28;20042;-65
2024/02/14 04:45:08;;;;;;;29.90;12.70;;;12.10;99.90;;;12.38;100.00;101180.50;5012334;28;20042;-64
2024/02/14 04:47:37;;;;;;;33.38;12.27;;;12.10;99.90;;;12.41;100.00;101177.81;5012620;28;20041;-65
2024/02/14 04:50:08;;;;;;;22.85;11.80;;;12.10;99.90;;;12.19;100.00;101154.09;5012199;28;20134;-65
2024/02/14 04:52:36;;;;;;;;;;;12.10;99.90;;;12.48;100.00;101183.97;5012845;28;20050;-65
2024/02/14 04:55:05;;;;;;;28.50;11.00;;;12.20;99.90;;;12.49;100.00;101177.75;5012903;28;19930;-65
2024/02/14 04:57:35;;;;;;;26.63;11.00;;;12.20;99.90;;;12.46;100.00;101172.50;5012215;28;20045;-65
2024/02/14 05:00:05;;;;;;;21.00;10.07;;;12.20;99.90;;;12.51;100.00;101190.13;5012257;28;20037;-65
2024/02/14 05:02:34;;;;;;;;;;;12.20;99.90;;;12.57;100.00;101194.50;5012898;28;20534;-65
2024/02/14 05:05:02;;;;;;;25.17;9.85;;;12.20;99.90;;;12.52;100.00;101185.72;5011862;28;19925;-65
2024/02/14 05:07:34;;;;;;;24.95;9.13;;;12.30;99.90;;;12.57;100.00;101183.88;5011896;28;20074;-65
2024/02/14 05:10:02;;;;;;;20.15;9.80;;;12.30;99.90;;;12.59;100.00;101176.81;4994499;28;20065;-65
2024/02/14 05:12:31;;;;;;;22.20;10.15;;;12.30;99.90;;;12.54;100.00;101183.94;4994796;28;20053;-65
2024/02/14 05:14:59;;;;;;;24.35;10.68;;;12.30;99.90;;;12.54;100.00;101179.47;5012136;28;20049;-65
2024/02/14 05:17:27;;;;;;;29.80;10.75;;;12.30;99.90;;;12.53;100.00;101182.16;5011798;28;20042;-65
2024/02/14 05:19:56;;;;;;;23.48;11.18;;;12.30;99.90;;;12.57;100.00;101192.75;4994342;28;20434;-66
2024/02/14 05:22:25;;;;;;;26.77;12.50;;;12.30;99.90;;;12.55;100.00;101191.88;4994030;28;20065;-65
2024/02/14 05:24:55;;;;;;;31.98;12.63;;;12.30;99.90;;;12.60;100.00;101183.88;5011597;28;20050;-65
2024/02/14 05:27:24;;;;;;;36.20;13.10;;;12.30;99.90;;;12.56;100.00;101188.31;5011734;28;20053;-65
2024/02/14 05:29:52;;;;;;;30.63;12.02;;;12.30;99.90;;;12.62;100.00;101187.38;5011861;28;20458;-65
2024/02/14 05:32:20;;;;;;;35.47;14.52;;;12.30;99.90;;;12.37;100.00;101168.13;5011825;28;20116;-65
2024/02/14 05:34:49;;;;;;;27.02;14.50;;;12.30;99.90;;;12.54;100.00;101199.84;5011192;28;20088;-65
2024/02/14 05:37:17;;;;;;;30.27;14.07;;;12.20;99.90;;;12.59;100.00;101204.22;5011314;28;20053;-65
2024/02/14 05:39:46;;;;;;;37.97;19.15;;;12.30;99.90;;;12.43;100.00;101188.41;5011002;28;20132;-65
2024/02/14 05:42:17;;;;;;;30.48;18.08;;;12.30;99.90;;;12.57;100.00;101206.00;5010980;28;20049;-65
2024/02/14 05:44:45;;;;;;;32.05;17.85;;;12.20;99.90;;;12.57;100.00;101202.47;5011241;28;20038;-65
2024/02/14 05:47:14;;;;;;;44.55;19.73;;;12.30;99.90;;;12.57;100.00;101206.00;5011660;28;20407;-65
2024/02/14 05:49:42;;;;;;;35.38;19.80;;;12.30;99.90;;;12.49;100.00;101209.59;5010924;28;20098;-65
2024/02/14 05:52:11;;;;;;;34.60;19.67;;;12.20;99.90;;;12.55;100.00;101207.78;5011410;28;20133;-65
2024/02/14 05:54:39;;;;;;;35.75;19.90;;;12.20;99.90;;;12.54;100.00;101199.84;4993555;28;20450;-65
2024/02/14 05:57:08;;;;;;;39.05;21.20;;;12.20;99.90;;;12.57;100.00;101208.66;5010841;28;20053;-65
2024/02/14 05:59:38;;;;;;;38.92;18.08;;;12.30;99.90;;;12.51;100.00;101224.63;5011000;28;20057;-65
2024/02/14 06:02:08;;;;;;;38.25;17.98;;;12.20;99.90;;;12.53;100.00;101214.00;5010877;28;20053;-65
2024/02/14 06:04:36;;;;;;;30.80;17.95;;;12.20;99.90;;;12.52;100.00;101220.22;4993247;28;20064;-65
2024/02/14 06:07:06;;;;;;;34.08;18.05;;;12.30;99.90;;;12.49;100.00;101209.59;5010796;28;20053;-65
2024/02/14 06:09:35;;;;;;;39.38;17.92;;;12.20;99.90;;;12.60;100.00;101205.13;5010985;28;20045;-65
2024/02/14 06:12:04;;;;;;;31.10;18.17;;;12.30;99.90;;;12.57;100.00;101206.00;5010870;28;20407;-64
2024/02/14 06:14:34;;;;;;;29.35;17.83;;;12.30;99.90;;;12.63;100.00;101207.72;5010476;28;20132;-66
2024/02/14 06:17:04;;;;;;;34.05;17.38;;;12.30;99.90;;;12.66;100.00;101236.88;5010965;28;20050;-66
2024/02/14 06:19:34;;;;;;;33.65;16.63;;;12.30;99.90;;;12.63;100.00;101215.69;5010913;28;20046;-65
2024/02/14 06:22:07;;;;;;;28.85;16.98;;;12.30;99.90;;;11.97;100.00;101099.44;4993017;28;20056;-65
2024/02/14 06:24:36;;;;;;;25.95;16.40;;;12.30;99.90;;;12.62;100.00;101214.81;4993113;28;20495;-65
2024/02/14 06:27:05;;;;;;;28.60;17.17;;;12.30;99.90;;;12.69;100.00;101220.97;5010418;28;20053;-66
2024/02/14 06:29:34;;;;;;;28.17;17.83;;;12.40;99.90;;;12.62;100.00;101225.41;4992963;28;20046;-66
2024/02/14 06:32:04;;;;;;;32.85;18.48;;;12.30;99.90;;;12.56;100.00;101201.56;5010151;28;20117;-66
2024/02/14 06:34:33;;;;;;;30.17;18.23;;;12.40;99.90;;;12.70;100.00;101223.59;5010484;28;20379;-65
2024/02/14 06:37:01;;;;;;;27.23;17.83;;;12.40;99.90;;;12.01;100.00;101112.69;4992880;28;20742;-66
2024/02/14 06:39:30;;;;;;;29.15;18.38;;;12.40;99.90;;;12.71;100.00;101229.78;5010196;28;20460;-66
2024/02/14 06:41:58;;;;;;;23.13;17.33;;;12.40;99.90;;;12.68;100.00;101220.06;5010355;28;20038;-67
2024/02/14 06:44:27;;;;;;;28.90;17.83;;;12.50;99.90;;;12.67;100.00;101246.63;5010395;28;20510;-66
2024/02/14 06:46:55;;;;;;;32.50;18.60;;;12.40;99.90;;;12.70;100.00;101233.31;5010172;28;20691;-67
2024/02/14 06:49:25;;;;;;;33.45;20.20;;;12.40;99.90;;;12.64;100.00;101238.66;4993034;28;20081;-66
2024/02/14 06:51:53;;;;;;;24.75;17.52;;;12.40;99.90;;;12.66;100.00;101234.22;4994111;28;20111;-67
2024/02/14 06:54:22;;;;;;;25.50;16.92;;;12.40;99.90;;;12.71;100.00;101235.09;5014773;28;20056;-67
2024/02/14 06:56:50;;;;;;;21.90;16.20;;;12.40;99.90;;;12.67;100.00;101231.59;5014612;28;20072;-67
2024/02/14 06:59:19;;;;;;;23.20;16.15;;;12.40;99.90;;;12.72;100.00;101241.31;5013898;28;20041;-66
2024/02/14 07:01:47;;;;;;;23.73;16.95;;;12.40;99.90;;;12.72;100.00;101247.47;5014060;28;20049;-67
2024/02/14 07:04:15;;;;;;;19.92;15.95;;;12.40;99.90;;;12.69;100.00;101250.16;4996966;28;20057;-67
2024/02/14 07:06:45;;;;;;;23.27;16.60;;;12.40;99.90;;;12.69;100.00;101243.09;5014763;28;20136;-67
2024/02/14 07:09:14;;;;;;;23.05;16.50;;;12.40;99.90;;;12.56;100.00;101246.69;5013752;28;20049;-67
2024/02/14 07:11:43;;;;;;;22.67;16.35;;;12.40;99.90;;;12.46;100.00;101212.28;5013920;28;20053;-67
2024/02/14 07:14:11;;;;;;;22.60;16.55;;;12.40;99.90;;;12.77;100.00;101271.34;5013926;28;20049;-66
2024/02/14 07:16:40;;;;;;;21.33;15.63;;;12.40;99.90;;;12.77;100.00;101260.72;5013992;28;20483;-67
2024/02/14 07:19:08;;;;;;;19.25;15.75;;;12.40;99.90;;;12.67;100.00;101260.78;5014283;28;20061;-67
2024/02/14 07:21:38;;;;;;;19.17;15.32;;;12.40;99.90;;;12.72;100.00;101266.03;5013603;28;20096;-67
2024/02/14 07:24:08;;;;;;;20.52;16.08;;;12.40;99.90;;;12.78;100.00;101270.44;5013987;28;20052;-67
2024/02/14 07:26:36;;;;;;;20.25;15.32;;;12.50;99.90;;;12.87;100.00;101273.03;5013552;28;20046;-67
2024/02/14 07:29:05;;;;;;;16.88;15.18;;;12.50;99.90;;;12.92;100.00;101273.88;5013665;28;20049;-67
2024/02/14 07:31:34;;;;;;;21.50;16.80;;;12.60;99.90;;;12.78;100.00;101279.28;5013452;28;20068;-67
2024/02/14 07:34:03;;;;;;;27.23;16.83;;;12.50;99.90;;;12.73;100.00;101281.09;5013296;28;20124;-67
2024/02/14 07:36:36;;;;;;;21.05;17.20;;;12.50;99.90;;;12.79;100.00;101274.84;5013380;28;20042;-67
2024/02/14 07:39:04;;;;;;;22.27;17.73;;;12.50;99.90;;;12.81;100.00;101279.28;5013239;28;20038;-66
2024/02/14 07:41:34;;;;;;;23.00;17.88;;;12.50;99.90;;;12.82;100.00;101270.41;4995910;28;20447;-66
2024/02/14 07:44:02;;;;;;;18.60;16.70;;;12.50;99.90;;;12.83;100.00;101287.22;5013500;28;20423;-66
2024/02/14 07:46:31;;;;;;;20.33;17.02;;;12.50;99.90;;;12.86;100.00;101288.06;5013088;28;20737;-67
2024/02/14 07:49:00;;;;;;;20.50;16.95;;;12.50;99.90;;;12.92;100.00;101288.03;5012944;28;20045;-67
2024/02/14 07:51:29;;;;;;;21.90;18.88;;;12.60;99.90;;;12.85;100.00;101285.44;5012926;28;20511;-67
2024/02/14 07:53:57;;;;;;;19.25;17.35;;;12.60;99.90;;;12.68;100.00;101289.06;5013108;28;20056;-67
2024/02/14 07:56:26;;;;;;;18.95;17.15;;;12.40;99.90;;;12.70;100.00;101297.91;5012874;28;20064;-67
2024/02/14 07:58:55;;;;;;;17.58;15.85;;;12.50;99.90;;;12.63;100.00;101282.94;5012931;28;20657;-67
2024/02/14 08:01:24;;;;;;;16.48;14.95;;;12.30;99.90;;;12.63;100.00;101300.63;4995274;28;20062;-67
2024/02/14 08:03:52;;;;;;;16.05;14.45;;;12.40;99.90;;;12.48;100.00;101271.53;5012139;28;20048;-67
2024/02/14 08:06:21;;;;;;;15.32;13.82;;;12.30;99.90;;;12.54;100.00;101290.06;5012792;28;20049;-67
2024/02/14 08:08:52;;;;;;;15.40;13.93;;;12.30;99.90;;;12.65;100.00;101294.41;4995580;28;20050;-67
2024/02/14 08:11:20;;;;;;;14.63;13.23;;;12.30;99.90;;;12.66;100.00;101304.13;5012765;28;20072;-67
2024/02/14 08:13:49;;;;;;;15.48;13.88;;;12.30;99.90;;;12.64;100.00;101303.25;5012721;28;20100;-67
2024/02/14 08:16:19;;;;;;;17.35;15.68;;;12.30;99.90;;;12.67;100.00;101312.97;5013012;28;20073;-67
2024/02/14 08:18:48;;;;;;;18.60;16.73;;;12.30;99.90;;;12.66;100.00;101300.59;5012693;28;20112;-67
2024/02/14 08:21:17;;;;;;;20.83;18.65;;;12.30;99.90;;;12.50;100.00;101307.75;4994962;28;20053;-67
2024/02/14 08:23:45;;;;;;;22.52;18.88;;;12.20;99.90;;;12.59;100.00;101310.38;5012900;28;20042;-67
2024/02/14 08:26:14;;;;;;;19.52;17.55;;;12.30;99.90;;;12.59;100.00;101317.44;5013556;28;20049;-67
2024/02/14 08:28:42;;;;;;;21.23;18.98;;;12.30;99.90;;;12.55;100.00;101311.28;5012977;28;20052;-67
2024/02/14 08:31:12;;;;;;;22.38;19.98;;;12.20;99.90;;;12.59;100.00;101306.84;5012634;28;20049;-68
2024/02/14 08:33:41;;;;;;;21.10;18.80;;;12.30;99.90;;;12.64;100.00;101315.63;5012828;28;20056;-68
2024/02/14 08:36:10;;;;;;;22.77;19.08;;;12.30;99.90;;;12.58;100.00;101305.09;4995514;28;20080;-68
2024/02/14 08:38:39;;;;;;;23.70;20.67;;;12.30;99.90;;;12.57;100.00;101312.16;5012741;28;20045;-67
2024/02/14 08:41:08;;;;;;;25.02;20.20;;;12.30;99.90;;;12.58;100.00;101297.97;5012604;28;20061;-67
2024/02/14 08:43:36;;;;;;;23.77;19.90;;;12.30;99.90;;;12.62;100.00;101318.31;5013209;28;20058;-67
2024/02/14 08:46:11;;;;;;;22.70;20.30;;;12.30;99.90;;;12.59;100.00;101339.56;5012553;28;20077;-66
2024/02/14 08:48:45;;;;;;;24.42;19.92;;;12.30;99.90;;;12.61;100.00;101320.97;5012706;28;20045;-67
2024/02/14 08:51:15;;;;;;;21.85;18.75;;;12.30;99.90;;;12.64;100.00;101324.50;5012272;28;20054;-68
2024/02/14 08:53:44;;;;;;;23.00;19.50;;;12.40;99.90;;;12.69;100.00;101322.72;5012209;28;20041;-66
2024/02/14 08:56:14;;;;;;;22.35;19.40;;;12.40;99.90;;;12.71;100.00;101328.00;5012138;28;20038;-68
2024/02/14 08:58:44;;;;;;;20.98;18.77;;;12.40;99.90;;;12.68;100.00;101326.25;4994531;28;20100;-66
2024/02/14 09:01:12;;;;;;;20.65;18.45;;;12.40;99.90;;;12.61;100.00;101324.53;5011797;28;20057;-67
2024/02/14 09:03:47;;;;;;;;;;;12.40;99.90;;;12.68;100.00;101328.00;5012471;28;20057;-66
2024/02/14 09:06:18;;;;;;;19.45;16.38;;;12.40;99.90;;;12.04;100.00;101218.69;5012317;28;19927;-67
2024/02/14 09:08:47;;;;;;;17.25;15.40;;;12.40;99.90;;;12.73;100.00;101330.66;5011724;28;20057;-67
2024/02/14 09:11:16;;;;;;;18.30;16.40;;;12.40;99.90;;;12.75;100.00;101326.22;5011982;28;20062;-69
2024/02/14 09:13:47;;;;;;;18.67;16.67;;;12.40;99.90;;;12.70;100.00;101335.06;5011943;28;20045;-66
2024/02/14 09:16:16;;;;;;;17.63;15.77;;;12.40;99.90;;;12.59;100.00;101328.06;5011729;28;20057;-66
2024/02/14 09:18:47;;;;;;;19.02;17.02;;;12.30;99.90;;;12.53;100.00;101325.44;5011941;28;20047;-67
2024/02/14 09:21:16;;;;;;;20.00;17.00;;;12.30;99.90;;;12.58;100.00;101339.59;5011434;28;20033;-66
2024/02/14 09:23:48;;;;;;;20.80;17.27;;;12.30;99.90;;;12.58;100.00;101347.53;5011583;28;20399;-67
2024/02/14 09:26:17;;;;;;;19.85;17.75;;;12.30;99.90;;;12.60;100.00;101332.50;5011594;28;20049;-67
2024/02/14 09:28:45;;;;;;;18.38;16.35;;;12.30;99.90;;;12.63;100.00;101346.63;5011679;28;20049;-67
2024/02/14 09:31:19;;;;;;;18.77;16.92;;;12.30;99.90;;;12.60;100.00;101348.41;5011440;28;20049;-67
2024/02/14 09:33:49;;;;;;;19.40;17.27;;;12.30;99.90;;;12.51;100.00;101321.91;5011314;28;20038;-66
2024/02/14 09:36:19;;;;;;;;;;;12.40;99.90;;;12.65;100.00;101342.19;4994297;28;20078;-67
2024/02/14 09:38:48;;;;;;;19.25;17.35;;;12.30;99.90;;;12.61;100.00;101339.56;5011406;28;19921;-66
2024/02/14 09:41:23;;;;;;;19.00;17.10;;;12.30;99.90;;;12.70;100.00;101337.72;5011648;28;20068;-67
2024/02/14 09:43:52;;;;;;;18.45;16.60;;;12.40;99.90;;;12.72;100.00;101339.50;5011743;28;20054;-66
2024/02/14 09:46:21;;;;;;;19.05;17.15;;;12.40;99.90;;;12.65;100.00;101338.66;5011066;28;20045;-66
2024/02/14 09:48:53;;;;;;;18.85;16.85;;;12.40;99.90;;;12.68;100.00;101341.28;5011728;28;20045;-66
2024/02/14 09:51:25;;;;;;;17.50;15.85;;;12.40;99.90;;;11.91;100.00;101211.69;5013197;28;20080;-66
2024/02/14 09:53:55;;;;;;;;;;;12.40;99.90;;;12.67;100.00;101343.06;5013592;28;20041;-67
2024/02/14 09:56:24;;;;;;;15.95;14.45;;;12.40;99.90;;;12.68;100.00;101352.78;5013254;28;19932;-68
2024/02/14 09:58:56;;;;;;;17.13;15.60;;;12.40;99.90;;;12.76;100.00;101355.38;5013235;28;20038;-66
2024/02/14 10:01:27;;;;;;;14.95;13.55;;;12.40;99.90;;;12.80;100.00;101351.81;5012885;28;20057;-70
2024/02/14 10:03:59;;;;;;;15.50;13.98;;;12.50;99.90;;;12.75;100.00;101343.03;5013105;28;20120;-66